sensor_id;sensor_type;location;lat;lon;timestamp;temperature;humidity
54126;DHT22;40360;52.992;6.796;2023-04-23T09:31:22;15.80;99.90
54126;DHT22;40360;52.992;6.796;2023-04-23T09:33:52;16.20;99.90
54126;DHT22;40360;52.992;6.796;2023-04-23T09:36:20;16.10;99.90
54126;DHT22;40360;52.992;6.796;2023-04-23T09:38:47;16.10;99.90
54126;DHT22;40360;52.992;6.796;2023-04-23T09:41:23;15.90;99.90
54126;DHT22;40360;52.992;6.796;2023-04-23T09:43:52;15.80;99.90
54126;DHT22;40360;52.992;6.796;2023-04-23T09:46:18;16.00;99.90
54126;DHT22;40360;52.992;6.796;2023-04-23T09:48:43;16.10;99.90
54126;DHT22;40360;52.992;6.796;2023-04-23T09:51:12;16.20;99.90
54126;DHT22;40360;52.992;6.796;2023-04-23T09:53:40;16.30;99.90
54126;DHT22;40360;52.992;6.796;2023-04-23T09:56:07;16.40;99.90
54126;DHT22;40360;52.992;6.796;2023-04-23T09:58:32;16.30;99.90
54126;DHT22;40360;52.992;6.796;2023-04-23T10:01:07;15.90;99.90
54126;DHT22;40360;52.992;6.796;2023-04-23T10:03:33;16.00;99.90
54126;DHT22;40360;52.992;6.796;2023-04-23T10:05:59;15.80;99.90
54126;DHT22;40360;52.992;6.796;2023-04-23T10:08:26;15.70;99.90
54126;DHT22;40360;52.992;6.796;2023-04-23T10:10:51;15.40;99.90
54126;DHT22;40360;52.992;6.796;2023-04-23T10:13:17;15.40;99.90
54126;DHT22;40360;52.992;6.796;2023-04-23T10:15:45;15.70;99.90
54126;DHT22;40360;52.992;6.796;2023-04-23T10:18:15;15.90;99.90
54126;DHT22;40360;52.992;6.796;2023-04-23T10:20:41;16.10;99.90
54126;DHT22;40360;52.992;6.796;2023-04-23T10:23:08;16.10;99.90
54126;DHT22;40360;52.992;6.796;2023-04-23T10:25:38;16.30;99.90
54126;DHT22;40360;52.992;6.796;2023-04-23T10:28:05;16.60;99.90
54126;DHT22;40360;52.992;6.796;2023-04-23T10:30:34;16.80;99.90
54126;DHT22;40360;52.992;6.796;2023-04-23T10:33:01;17.00;99.90
54126;DHT22;40360;52.992;6.796;2023-04-23T10:35:28;17.00;99.90
54126;DHT22;40360;52.992;6.796;2023-04-23T10:37:54;16.80;99.90
54126;DHT22;40360;52.992;6.796;2023-04-23T10:40:25;16.50;99.90
54126;DHT22;40360;52.992;6.796;2023-04-23T10:42:52;16.40;99.90
54126;DHT22;40360;52.992;6.796;2023-04-23T10:45:18;16.40;99.90
54126;DHT22;40360;52.992;6.796;2023-04-23T10:47:45;16.50;99.90
54126;DHT22;40360;52.992;6.796;2023-04-23T10:50:25;16.50;99.90
54126;DHT22;40360;52.992;6.796;2023-04-23T10:52:51;16.60;99.90
54126;DHT22;40360;52.992;6.796;2023-04-23T10:55:20;16.30;99.90
54126;DHT22;40360;52.992;6.796;2023-04-23T10:57:56;16.60;99.90
54126;DHT22;40360;52.992;6.796;2023-04-23T11:00:23;16.60;99.90
54126;DHT22;40360;52.992;6.796;2023-04-23T11:02:49;16.80;99.90
54126;DHT22;40360;52.992;6.796;2023-04-23T11:05:16;16.90;99.90
54126;DHT22;40360;52.992;6.796;2023-04-23T11:07:41;17.10;99.90
54126;DHT22;40360;52.992;6.796;2023-04-23T11:10:14;17.30;99.90
54126;DHT22;40360;52.992;6.796;2023-04-23T11:12:40;17.10;99.90
54126;DHT22;40360;52.992;6.796;2023-04-23T11:15:17;17.10;99.90
54126;DHT22;40360;52.992;6.796;2023-04-23T11:20:09;16.90;99.90
54126;DHT22;40360;52.992;6.796;2023-04-23T11:22:37;16.80;99.90
54126;DHT22;40360;52.992;6.796;2023-04-23T11:25:04;16.70;99.90
54126;DHT22;40360;52.992;6.796;2023-04-23T11:27:37;16.70;99.90
54126;DHT22;40360;52.992;6.796;2023-04-23T11:30:03;16.70;99.90
54126;DHT22;40360;52.992;6.796;2023-04-23T11:32:31;16.80;99.90
54126;DHT22;40360;52.992;6.796;2023-04-23T11:34:56;17.00;99.90
54126;DHT22;40360;52.992;6.796;2023-04-23T11:37:24;17.30;99.90
54126;DHT22;40360;52.992;6.796;2023-04-23T11:39:50;17.40;99.90
54126;DHT22;40360;52.992;6.796;2023-04-23T11:42:16;17.50;99.90
54126;DHT22;40360;52.992;6.796;2023-04-23T11:44:44;17.60;99.90
54126;DHT22;40360;52.992;6.796;2023-04-23T11:47:12;17.80;99.90
54126;DHT22;40360;52.992;6.796;2023-04-23T11:49:39;17.50;99.90
54126;DHT22;40360;52.992;6.796;2023-04-23T11:52:07;17.30;99.90
54126;DHT22;40360;52.992;6.796;2023-04-23T11:54:33;17.10;99.90
54126;DHT22;40360;52.992;6.796;2023-04-23T11:56:59;17.10;99.90
54126;DHT22;40360;52.992;6.796;2023-04-23T11:59:26;17.30;99.90
54126;DHT22;40360;52.992;6.796;2023-04-23T12:01:54;17.20;99.90
54126;DHT22;40360;52.992;6.796;2023-04-23T12:04:28;17.50;99.90
54126;DHT22;40360;52.992;6.796;2023-04-23T12:06:55;17.70;99.90
54126;DHT22;40360;52.992;6.796;2023-04-23T12:09:24;17.90;99.90
54126;DHT22;40360;52.992;6.796;2023-04-23T12:11:50;17.90;99.90
54126;DHT22;40360;52.992;6.796;2023-04-23T12:14:16;17.40;99.90
54126;DHT22;40360;52.992;6.796;2023-04-23T12:16:47;17.30;99.90
54126;DHT22;40360;52.992;6.796;2023-04-23T12:19:25;17.20;99.90
54126;DHT22;40360;52.992;6.796;2023-04-23T12:21:55;17.30;99.90
54126;DHT22;40360;52.992;6.796;2023-04-23T12:24:22;17.50;99.90
54126;DHT22;40360;52.992;6.796;2023-04-23T12:26:52;17.60;99.90
54126;DHT22;40360;52.992;6.796;2023-04-23T12:29:20;18.00;99.90
54126;DHT22;40360;52.992;6.796;2023-04-23T12:31:47;18.40;99.90
54126;DHT22;40360;52.992;6.796;2023-04-23T12:34:13;18.70;99.90
54126;DHT22;40360;52.992;6.796;2023-04-23T12:36:47;19.00;99.90
54126;DHT22;40360;52.992;6.796;2023-04-23T12:39:33;19.00;99.90
54126;DHT22;40360;52.992;6.796;2023-04-23T12:42:03;19.00;99.90
54126;DHT22;40360;52.992;6.796;2023-04-23T12:44:30;18.70;99.90
54126;DHT22;40360;52.992;6.796;2023-04-23T12:46:57;18.40;99.90
54126;DHT22;40360;52.992;6.796;2023-04-23T12:49:23;18.30;99.90
54126;DHT22;40360;52.992;6.796;2023-04-23T12:51:49;18.10;99.90
54126;DHT22;40360;52.992;6.796;2023-04-23T12:54:15;18.10;99.90
54126;DHT22;40360;52.992;6.796;2023-04-23T12:56:40;18.00;99.90
54126;DHT22;40360;52.992;6.796;2023-04-23T12:59:06;18.10;99.90
54126;DHT22;40360;52.992;6.796;2023-04-23T13:01:32;18.00;99.90
54126;DHT22;40360;52.992;6.796;2023-04-23T13:03:58;18.00;99.90
54126;DHT22;40360;52.992;6.796;2023-04-23T13:06:24;18.00;99.90
54126;DHT22;40360;52.992;6.796;2023-04-23T13:08:51;18.00;99.90
54126;DHT22;40360;52.992;6.796;2023-04-23T13:11:16;17.90;99.90
54126;DHT22;40360;52.992;6.796;2023-04-23T13:13:42;18.00;99.90
54126;DHT22;40360;52.992;6.796;2023-04-23T13:16:08;17.90;99.90
54126;DHT22;40360;52.992;6.796;2023-04-23T13:18:33;18.00;99.90
54126;DHT22;40360;52.992;6.796;2023-04-23T13:20:59;18.00;99.90
54126;DHT22;40360;52.992;6.796;2023-04-23T13:23:24;17.90;99.90
54126;DHT22;40360;52.992;6.796;2023-04-23T13:25:50;17.90;99.90
54126;DHT22;40360;52.992;6.796;2023-04-23T13:28:16;17.90;99.90
54126;DHT22;40360;52.992;6.796;2023-04-23T13:30:42;18.10;99.90
54126;DHT22;40360;52.992;6.796;2023-04-23T13:33:07;18.30;99.90
54126;DHT22;40360;52.992;6.796;2023-04-23T13:35:33;18.20;99.90
54126;DHT22;40360;52.992;6.796;2023-04-23T13:38:02;18.20;99.90
54126;DHT22;40360;52.992;6.796;2023-04-23T13:40:28;18.40;99.90
54126;DHT22;40360;52.992;6.796;2023-04-23T13:42:53;18.30;99.90
54126;DHT22;40360;52.992;6.796;2023-04-23T13:45:19;18.50;99.90
54126;DHT22;40360;52.992;6.796;2023-04-23T13:47:45;18.60;99.90
54126;DHT22;40360;52.992;6.796;2023-04-23T13:50:11;18.60;99.90
54126;DHT22;40360;52.992;6.796;2023-04-23T13:52:37;18.80;99.90
54126;DHT22;40360;52.992;6.796;2023-04-23T13:55:04;18.80;99.90
54126;DHT22;40360;52.992;6.796;2023-04-23T13:57:32;18.80;99.90
54126;DHT22;40360;52.992;6.796;2023-04-23T13:59:58;18.70;99.90
54126;DHT22;40360;52.992;6.796;2023-04-23T14:02:25;18.70;99.90
54126;DHT22;40360;52.992;6.796;2023-04-23T14:04:51;18.50;99.90
54126;DHT22;40360;52.992;6.796;2023-04-23T14:07:16;18.40;99.90
54126;DHT22;40360;52.992;6.796;2023-04-23T14:09:42;18.20;99.90
54126;DHT22;40360;52.992;6.796;2023-04-23T14:12:08;18.10;99.90
54126;DHT22;40360;52.992;6.796;2023-04-23T14:14:34;17.90;99.90
54126;DHT22;40360;52.992;6.796;2023-04-23T14:17:00;17.90;99.90
54126;DHT22;40360;52.992;6.796;2023-04-23T14:19:26;17.90;99.90
54126;DHT22;40360;52.992;6.796;2023-04-23T14:21:51;17.90;99.90
54126;DHT22;40360;52.992;6.796;2023-04-23T14:24:27;17.90;99.90
54126;DHT22;40360;52.992;6.796;2023-04-23T14:26:57;17.90;99.90
54126;DHT22;40360;52.992;6.796;2023-04-23T14:29:45;18.00;99.90
54126;DHT22;40360;52.992;6.796;2023-04-23T14:32:11;18.10;99.90
54126;DHT22;40360;52.992;6.796;2023-04-23T14:34:37;18.30;99.90
54126;DHT22;40360;52.992;6.796;2023-04-23T14:37:04;18.40;99.90
54126;DHT22;40360;52.992;6.796;2023-04-23T14:39:29;18.50;99.90
54126;DHT22;40360;52.992;6.796;2023-04-23T14:41:55;18.80;99.90
54126;DHT22;40360;52.992;6.796;2023-04-23T14:44:21;18.80;99.90
54126;DHT22;40360;52.992;6.796;2023-04-23T14:46:54;18.80;99.90
54126;DHT22;40360;52.992;6.796;2023-04-23T14:49:19;18.70;99.90
54126;DHT22;40360;52.992;6.796;2023-04-23T14:51:49;18.80;99.90
54126;DHT22;40360;52.992;6.796;2023-04-23T14:54:16;18.80;99.90
54126;DHT22;40360;52.992;6.796;2023-04-23T14:56:41;18.90;99.90
54126;DHT22;40360;52.992;6.796;2023-04-23T14:59:07;18.90;99.90
54126;DHT22;40360;52.992;6.796;2023-04-23T15:01:33;18.90;99.90
54126;DHT22;40360;52.992;6.796;2023-04-23T15:03:59;18.90;99.90
54126;DHT22;40360;52.992;6.796;2023-04-23T15:06:25;18.90;99.90
54126;DHT22;40360;52.992;6.796;2023-04-23T15:08:50;19.20;99.90
54126;DHT22;40360;52.992;6.796;2023-04-23T15:11:16;18.90;99.20
54126;DHT22;40360;52.992;6.796;2023-04-23T15:16:31;18.90;98.80
54126;DHT22;40360;52.992;6.796;2023-04-23T15:18:59;18.80;99.70
54126;DHT22;40360;52.992;6.796;2023-04-23T15:21:25;18.70;99.90
54126;DHT22;40360;52.992;6.796;2023-04-23T15:23:51;18.70;99.90
54126;DHT22;40360;52.992;6.796;2023-04-23T15:26:17;18.70;99.90
54126;DHT22;40360;52.992;6.796;2023-04-23T15:28:42;18.80;99.90
54126;DHT22;40360;52.992;6.796;2023-04-23T15:31:08;18.90;99.90
54126;DHT22;40360;52.992;6.796;2023-04-23T15:33:34;18.90;99.90
54126;DHT22;40360;52.992;6.796;2023-04-23T15:36:00;18.70;99.90
54126;DHT22;40360;52.992;6.796;2023-04-23T15:38:25;18.70;99.90
54126;DHT22;40360;52.992;6.796;2023-04-23T15:40:51;18.70;99.90
54126;DHT22;40360;52.992;6.796;2023-04-23T15:43:17;18.70;99.90
54126;DHT22;40360;52.992;6.796;2023-04-23T15:45:42;18.70;99.90
54126;DHT22;40360;52.992;6.796;2023-04-23T15:48:12;18.50;99.90
54126;DHT22;40360;52.992;6.796;2023-04-23T15:50:37;18.60;99.90
54126;DHT22;40360;52.992;6.796;2023-04-23T15:53:03;18.50;99.90
54126;DHT22;40360;52.992;6.796;2023-04-23T15:55:29;18.40;99.90
54126;DHT22;40360;52.992;6.796;2023-04-23T15:57:55;18.30;99.90
54126;DHT22;40360;52.992;6.796;2023-04-23T16:00:23;18.30;99.90
54126;DHT22;40360;52.992;6.796;2023-04-23T16:02:48;18.20;99.90
54126;DHT22;40360;52.992;6.796;2023-04-23T16:05:14;18.20;99.90
54126;DHT22;40360;52.992;6.796;2023-04-23T16:07:40;18.20;99.90
54126;DHT22;40360;52.992;6.796;2023-04-23T16:10:07;18.00;99.90
54126;DHT22;40360;52.992;6.796;2023-04-23T16:12:32;18.00;99.90
54126;DHT22;40360;52.992;6.796;2023-04-23T16:14:58;18.00;99.90
54126;DHT22;40360;52.992;6.796;2023-04-23T16:17:24;18.00;99.90
54126;DHT22;40360;52.992;6.796;2023-04-23T16:19:52;17.90;99.90
54126;DHT22;40360;52.992;6.796;2023-04-23T16:22:17;17.80;99.90
54126;DHT22;40360;52.992;6.796;2023-04-23T16:24:43;17.80;99.90
54126;DHT22;40360;52.992;6.796;2023-04-23T16:27:09;17.70;99.90
54126;DHT22;40360;52.992;6.796;2023-04-23T16:29:38;17.70;99.90
54126;DHT22;40360;52.992;6.796;2023-04-23T16:32:05;17.60;99.90
54126;DHT22;40360;52.992;6.796;2023-04-23T16:34:32;17.60;99.90
54126;DHT22;40360;52.992;6.796;2023-04-23T16:36:57;17.50;99.90
54126;DHT22;40360;52.992;6.796;2023-04-23T16:39:23;17.50;99.90
54126;DHT22;40360;52.992;6.796;2023-04-23T16:41:49;17.40;99.90
54126;DHT22;40360;52.992;6.796;2023-04-23T16:44:15;17.30;99.90
54126;DHT22;40360;52.992;6.796;2023-04-23T16:46:40;17.30;99.90
54126;DHT22;40360;52.992;6.796;2023-04-23T16:49:06;17.30;99.90
54126;DHT22;40360;52.992;6.796;2023-04-23T16:51:32;17.20;99.90
54126;DHT22;40360;52.992;6.796;2023-04-23T16:53:59;17.20;99.90
54126;DHT22;40360;52.992;6.796;2023-04-23T16:56:25;17.10;99.90
54126;DHT22;40360;52.992;6.796;2023-04-23T16:58:51;17.10;99.90
54126;DHT22;40360;52.992;6.796;2023-04-23T17:01:17;17.00;99.90
54126;DHT22;40360;52.992;6.796;2023-04-23T17:03:43;16.90;99.90
54126;DHT22;40360;52.992;6.796;2023-04-23T17:06:28;16.80;99.90
54126;DHT22;40360;52.992;6.796;2023-04-23T17:08:55;16.70;99.90
54126;DHT22;40360;52.992;6.796;2023-04-23T17:11:25;16.60;99.90
54126;DHT22;40360;52.992;6.796;2023-04-23T17:13:51;16.40;99.90
54126;DHT22;40360;52.992;6.796;2023-04-23T17:16:17;16.20;99.90
54126;DHT22;40360;52.992;6.796;2023-04-23T17:18:43;16.10;99.90
54126;DHT22;40360;52.992;6.796;2023-04-23T17:21:09;16.00;99.90
54126;DHT22;40360;52.992;6.796;2023-04-23T17:23:35;15.90;99.90
54126;DHT22;40360;52.992;6.796;2023-04-23T17:26:01;15.80;99.90
54126;DHT22;40360;52.992;6.796;2023-04-23T17:28:26;15.80;99.90
54126;DHT22;40360;52.992;6.796;2023-04-23T17:30:52;15.70;99.90
54126;DHT22;40360;52.992;6.796;2023-04-23T17:33:21;15.60;99.90
54126;DHT22;40360;52.992;6.796;2023-04-23T17:35:51;15.50;99.90
54126;DHT22;40360;52.992;6.796;2023-04-23T17:38:18;15.50;99.90
54126;DHT22;40360;52.992;6.796;2023-04-23T17:40:51;15.30;99.90
54126;DHT22;40360;52.992;6.796;2023-04-23T17:43:17;15.10;99.90
54126;DHT22;40360;52.992;6.796;2023-04-23T17:45:44;14.80;99.90
54126;DHT22;40360;52.992;6.796;2023-04-23T17:48:10;14.60;99.90
54126;DHT22;40360;52.992;6.796;2023-04-23T17:50:36;14.40;99.90
54126;DHT22;40360;52.992;6.796;2023-04-23T17:53:02;14.30;99.90
54126;DHT22;40360;52.992;6.796;2023-04-23T17:55:28;14.10;99.90
54126;DHT22;40360;52.992;6.796;2023-04-23T17:57:54;14.10;99.90
54126;DHT22;40360;52.992;6.796;2023-04-23T18:00:20;14.00;99.90
54126;DHT22;40360;52.992;6.796;2023-04-23T18:02:46;14.00;99.90
54126;DHT22;40360;52.992;6.796;2023-04-23T18:05:13;14.00;99.90
54126;DHT22;40360;52.992;6.796;2023-04-23T18:07:40;13.90;99.90
54126;DHT22;40360;52.992;6.796;2023-04-23T18:10:07;13.50;99.90
54126;DHT22;40360;52.992;6.796;2023-04-23T18:12:33;13.20;99.90
54126;DHT22;40360;52.992;6.796;2023-04-23T18:14:59;12.60;99.90
54126;DHT22;40360;52.992;6.796;2023-04-23T18:17:25;12.50;99.90
54126;DHT22;40360;52.992;6.796;2023-04-23T18:19:52;12.40;99.90
54126;DHT22;40360;52.992;6.796;2023-04-23T18:22:19;12.30;99.90
54126;DHT22;40360;52.992;6.796;2023-04-23T18:24:49;12.20;99.90
54126;DHT22;40360;52.992;6.796;2023-04-23T18:27:16;12.20;99.90
54126;DHT22;40360;52.992;6.796;2023-04-23T18:29:41;12.10;99.90
54126;DHT22;40360;52.992;6.796;2023-04-23T18:32:07;12.00;99.90
54126;DHT22;40360;52.992;6.796;2023-04-23T18:34:38;11.90;99.90
54126;DHT22;40360;52.992;6.796;2023-04-23T18:37:08;11.90;99.90
54126;DHT22;40360;52.992;6.796;2023-04-23T18:39:34;11.90;99.90
54126;DHT22;40360;52.992;6.796;2023-04-23T18:41:59;11.90;99.90
54126;DHT22;40360;52.992;6.796;2023-04-23T18:44:25;11.90;99.90
54126;DHT22;40360;52.992;6.796;2023-04-23T18:46:51;11.90;99.90
54126;DHT22;40360;52.992;6.796;2023-04-23T18:51:55;11.90;99.90
54126;DHT22;40360;52.992;6.796;2023-04-23T18:54:21;11.90;99.90
54126;DHT22;40360;52.992;6.796;2023-04-23T18:56:49;11.90;99.90
54126;DHT22;40360;52.992;6.796;2023-04-23T18:59:17;12.00;99.90
54126;DHT22;40360;52.992;6.796;2023-04-23T19:01:44;12.00;99.90
54126;DHT22;40360;52.992;6.796;2023-04-23T19:04:12;12.00;99.90
54126;DHT22;40360;52.992;6.796;2023-04-23T19:06:38;12.10;99.90
54126;DHT22;40360;52.992;6.796;2023-04-23T19:09:04;12.10;99.90
54126;DHT22;40360;52.992;6.796;2023-04-23T19:11:29;12.20;99.90
54126;DHT22;40360;52.992;6.796;2023-04-23T19:14:02;12.20;99.90
54126;DHT22;40360;52.992;6.796;2023-04-23T19:16:27;12.20;99.90
54126;DHT22;40360;52.992;6.796;2023-04-23T19:18:54;12.20;99.90
54126;DHT22;40360;52.992;6.796;2023-04-23T19:21:19;12.20;99.90
54126;DHT22;40360;52.992;6.796;2023-04-23T19:23:45;12.30;99.90
54126;DHT22;40360;52.992;6.796;2023-04-23T19:26:11;12.30;99.90
54126;DHT22;40360;52.992;6.796;2023-04-23T19:28:37;12.30;99.90
54126;DHT22;40360;52.992;6.796;2023-04-23T19:31:03;12.30;99.90
54126;DHT22;40360;52.992;6.796;2023-04-23T19:33:29;12.30;99.90
54126;DHT22;40360;52.992;6.796;2023-04-23T19:35:55;12.30;99.90
54126;DHT22;40360;52.992;6.796;2023-04-23T19:38:21;12.30;99.90
54126;DHT22;40360;52.992;6.796;2023-04-23T19:40:46;12.30;99.90
54126;DHT22;40360;52.992;6.796;2023-04-23T19:43:12;12.20;99.90
54126;DHT22;40360;52.992;6.796;2023-04-23T19:45:38;12.30;99.90
54126;DHT22;40360;52.992;6.796;2023-04-23T19:48:03;12.30;99.90
54126;DHT22;40360;52.992;6.796;2023-04-23T19:50:31;12.30;99.90
54126;DHT22;40360;52.992;6.796;2023-04-23T19:52:57;12.20;99.90
54126;DHT22;40360;52.992;6.796;2023-04-23T19:55:23;12.30;99.90
54126;DHT22;40360;52.992;6.796;2023-04-23T19:57:55;12.20;99.90
54126;DHT22;40360;52.992;6.796;2023-04-23T20:00:25;12.20;99.90
54126;DHT22;40360;52.992;6.796;2023-04-23T20:02:51;12.20;99.90
54126;DHT22;40360;52.992;6.796;2023-04-23T20:05:17;12.20;99.90
54126;DHT22;40360;52.992;6.796;2023-04-23T20:07:44;12.20;99.90
54126;DHT22;40360;52.992;6.796;2023-04-23T20:10:11;12.20;99.90
54126;DHT22;40360;52.992;6.796;2023-04-23T20:12:36;12.10;99.90
54126;DHT22;40360;52.992;6.796;2023-04-23T20:15:07;12.10;99.90
54126;DHT22;40360;52.992;6.796;2023-04-23T20:17:34;12.10;99.90
54126;DHT22;40360;52.992;6.796;2023-04-23T20:19:59;12.00;99.90
54126;DHT22;40360;52.992;6.796;2023-04-23T20:22:29;12.00;99.90
54126;DHT22;40360;52.992;6.796;2023-04-23T20:24:55;12.00;99.90
54126;DHT22;40360;52.992;6.796;2023-04-23T20:27:21;12.00;99.90
54126;DHT22;40360;52.992;6.796;2023-04-23T20:29:47;12.00;99.90
54126;DHT22;40360;52.992;6.796;2023-04-23T20:32:13;12.00;99.90
54126;DHT22;40360;52.992;6.796;2023-04-23T20:34:39;12.00;99.90
54126;DHT22;40360;52.992;6.796;2023-04-23T20:37:05;11.90;99.90
54126;DHT22;40360;52.992;6.796;2023-04-23T20:39:31;12.00;99.90
54126;DHT22;40360;52.992;6.796;2023-04-23T20:41:58;11.90;99.90
54126;DHT22;40360;52.992;6.796;2023-04-23T20:44:26;11.90;99.90
54126;DHT22;40360;52.992;6.796;2023-04-23T20:46:52;11.80;99.90
54126;DHT22;40360;52.992;6.796;2023-04-23T20:49:18;11.80;99.90
54126;DHT22;40360;52.992;6.796;2023-04-23T20:51:44;11.80;99.90
54126;DHT22;40360;52.992;6.796;2023-04-23T20:54:10;11.80;99.90
54126;DHT22;40360;52.992;6.796;2023-04-23T20:56:37;11.80;99.90
54126;DHT22;40360;52.992;6.796;2023-04-23T20:59:04;11.70;99.90
54126;DHT22;40360;52.992;6.796;2023-04-23T21:01:30;11.70;99.90
54126;DHT22;40360;52.992;6.796;2023-04-23T21:03:58;11.70;99.90
54126;DHT22;40360;52.992;6.796;2023-04-23T21:06:25;11.70;99.90
54126;DHT22;40360;52.992;6.796;2023-04-23T21:08:50;11.70;99.90
54126;DHT22;40360;52.992;6.796;2023-04-23T21:11:18;11.70;99.90
54126;DHT22;40360;52.992;6.796;2023-04-23T21:13:46;11.60;99.90
54126;DHT22;40360;52.992;6.796;2023-04-23T21:16:12;11.60;99.90
54126;DHT22;40360;52.992;6.796;2023-04-23T21:18:39;11.60;99.90
54126;DHT22;40360;52.992;6.796;2023-04-23T21:21:04;11.60;99.90
54126;DHT22;40360;52.992;6.796;2023-04-23T21:23:30;11.60;99.90
54126;DHT22;40360;52.992;6.796;2023-04-23T21:25:56;11.60;99.90
54126;DHT22;40360;52.992;6.796;2023-04-23T21:28:22;11.60;99.90
54126;DHT22;40360;52.992;6.796;2023-04-23T21:30:49;11.60;99.90
54126;DHT22;40360;52.992;6.796;2023-04-23T21:33:17;11.60;99.90
54126;DHT22;40360;52.992;6.796;2023-04-23T21:35:43;11.50;99.90
54126;DHT22;40360;52.992;6.796;2023-04-23T21:38:09;11.50;99.90
54126;DHT22;40360;52.992;6.796;2023-04-23T21:40:36;11.50;99.90
54126;DHT22;40360;52.992;6.796;2023-04-23T21:43:02;11.50;99.90
54126;DHT22;40360;52.992;6.796;2023-04-23T21:45:28;11.50;99.90
54126;DHT22;40360;52.992;6.796;2023-04-23T21:47:54;11.50;99.90
54126;DHT22;40360;52.992;6.796;2023-04-23T21:50:23;11.50;99.90
54126;DHT22;40360;52.992;6.796;2023-04-23T21:52:50;11.50;99.90
54126;DHT22;40360;52.992;6.796;2023-04-23T21:55:20;11.50;99.90
54126;DHT22;40360;52.992;6.796;2023-04-23T21:57:47;11.50;99.90
54126;DHT22;40360;52.992;6.796;2023-04-23T22:00:14;11.50;99.90
54126;DHT22;40360;52.992;6.796;2023-04-23T22:02:41;11.50;99.90
54126;DHT22;40360;52.992;6.796;2023-04-23T22:05:11;11.50;99.90
54126;DHT22;40360;52.992;6.796;2023-04-23T22:07:37;11.50;99.90
54126;DHT22;40360;52.992;6.796;2023-04-23T22:10:09;11.50;99.90
54126;DHT22;40360;52.992;6.796;2023-04-23T22:12:36;11.60;99.90
54126;DHT22;40360;52.992;6.796;2023-04-23T22:15:04;11.60;99.90
54126;DHT22;40360;52.992;6.796;2023-04-23T22:17:30;11.50;99.90
54126;DHT22;40360;52.992;6.796;2023-04-23T22:19:56;11.50;99.90
54126;DHT22;40360;52.992;6.796;2023-04-23T22:22:22;11.50;99.90
54126;DHT22;40360;52.992;6.796;2023-04-23T22:24:47;11.50;99.90
54126;DHT22;40360;52.992;6.796;2023-04-23T22:27:13;11.50;99.90
54126;DHT22;40360;52.992;6.796;2023-04-23T22:29:39;11.50;99.90
54126;DHT22;40360;52.992;6.796;2023-04-23T22:32:04;11.50;99.90
54126;DHT22;40360;52.992;6.796;2023-04-23T22:34:30;11.40;99.90
54126;DHT22;40360;52.992;6.796;2023-04-23T22:36:55;11.40;99.90
54126;DHT22;40360;52.992;6.796;2023-04-23T22:39:21;11.40;99.90
54126;DHT22;40360;52.992;6.796;2023-04-23T22:41:47;11.40;99.90
54126;DHT22;40360;52.992;6.796;2023-04-23T22:44:12;11.40;99.90
54126;DHT22;40360;52.992;6.796;2023-04-23T22:46:38;11.40;99.90
54126;DHT22;40360;52.992;6.796;2023-04-23T22:49:04;11.40;99.90
54126;DHT22;40360;52.992;6.796;2023-04-23T22:51:32;11.50;99.90
54126;DHT22;40360;52.992;6.796;2023-04-23T22:53:59;11.50;99.90
54126;DHT22;40360;52.992;6.796;2023-04-23T22:56:25;11.50;99.90
54126;DHT22;40360;52.992;6.796;2023-04-23T22:58:50;11.50;99.90
54126;DHT22;40360;52.992;6.796;2023-04-23T23:01:16;11.50;99.90
54126;DHT22;40360;52.992;6.796;2023-04-23T23:03:44;11.50;99.90
54126;DHT22;40360;52.992;6.796;2023-04-23T23:06:10;11.50;99.90
54126;DHT22;40360;52.992;6.796;2023-04-23T23:08:36;11.50;99.90
54126;DHT22;40360;52.992;6.796;2023-04-23T23:11:02;11.50;99.90
54126;DHT22;40360;52.992;6.796;2023-04-23T23:13:27;11.50;99.90
54126;DHT22;40360;52.992;6.796;2023-04-23T23:15:53;11.50;99.90
54126;DHT22;40360;52.992;6.796;2023-04-23T23:18:19;11.50;99.90
54126;DHT22;40360;52.992;6.796;2023-04-23T23:20:44;11.50;99.90
54126;DHT22;40360;52.992;6.796;2023-04-23T23:23:10;11.50;99.90
54126;DHT22;40360;52.992;6.796;2023-04-23T23:25:36;11.50;99.90
54126;DHT22;40360;52.992;6.796;2023-04-23T23:28:03;11.50;99.90
54126;DHT22;40360;52.992;6.796;2023-04-23T23:30:29;11.50;99.90
54126;DHT22;40360;52.992;6.796;2023-04-23T23:32:55;11.40;99.90
54126;DHT22;40360;52.992;6.796;2023-04-23T23:35:21;11.30;99.90
54126;DHT22;40360;52.992;6.796;2023-04-23T23:37:47;11.10;99.90
54126;DHT22;40360;52.992;6.796;2023-04-23T23:40:12;11.00;99.90
54126;DHT22;40360;52.992;6.796;2023-04-23T23:42:38;11.00;99.90
54126;DHT22;40360;52.992;6.796;2023-04-23T23:45:04;10.90;99.90
54126;DHT22;40360;52.992;6.796;2023-04-23T23:47:30;10.90;99.90
54126;DHT22;40360;52.992;6.796;2023-04-23T23:49:55;10.90;99.90
54126;DHT22;40360;52.992;6.796;2023-04-23T23:52:21;10.80;99.90
54126;DHT22;40360;52.992;6.796;2023-04-23T23:54:47;10.80;99.90
54126;DHT22;40360;52.992;6.796;2023-04-23T23:57:13;10.80;99.90
54126;DHT22;40360;52.992;6.796;2023-04-23T23:59:38;10.70;99.90
